createdAt,value
2023-04-07T00:05:00.454Z,101613.13
2023-04-07T00:10:06.213Z,101614.31
2023-04-07T00:15:10.897Z,101626.22
2023-04-07T00:20:16.277Z,101617.84
2023-04-07T00:25:21.664Z,101619.06
2023-04-07T00:30:27.172Z,101618.81
2023-04-07T00:35:33.561Z,101618.78
2023-04-07T00:40:39.130Z,101614.94
2023-04-07T00:45:45.877Z,101623.94
2023-04-07T00:50:51.357Z,101620.53
2023-04-07T00:55:56.713Z,101625.78
2023-04-07T01:01:12.103Z,101604.72
2023-04-07T01:06:22.672Z,101628.19
2023-04-07T01:11:57.320Z,101588.44
2023-04-07T01:17:05.720Z,101602.56
2023-04-07T01:22:18.589Z,101632.16
2023-04-07T01:27:45.078Z,101592.44
2023-04-07T01:32:55.030Z,101589.56
2023-04-07T01:38:02.820Z,101583.94
2023-04-07T01:43:11.052Z,101582.34
2023-04-07T01:48:18.192Z,101574.00
2023-04-07T01:53:24.966Z,101566.25
2023-04-07T01:58:30.272Z,101561.66
2023-04-07T02:03:46.284Z,101560.69
2023-04-07T02:08:56.083Z,101552.00
2023-04-07T02:14:04.468Z,101543.88
2023-04-07T02:19:14.532Z,101545.53
2023-04-07T02:24:25.826Z,101547.13
2023-04-07T02:29:31.171Z,101540.06
2023-04-07T02:34:36.773Z,101560.13
2023-04-07T02:39:43.678Z,101524.97
2023-04-07T02:44:49.160Z,101523.03
2023-04-07T02:49:54.393Z,101512.28
2023-04-07T02:54:59.633Z,101501.09
2023-04-07T03:00:06.784Z,101483.44
2023-04-07T03:05:28.606Z,101462.09
2023-04-07T03:10:34.030Z,101463.66
2023-04-07T03:15:39.525Z,101461.16
2023-04-07T03:20:45.949Z,101448.59
2023-04-07T03:25:51.728Z,101425.88
2023-04-07T03:30:57.777Z,101415.28
2023-04-07T03:36:03.220Z,101401.34
2023-04-07T03:41:09.333Z,101387.00
2023-04-07T03:46:14.897Z,101391.72
2023-04-07T03:51:22.585Z,101380.06
2023-04-07T03:56:33.218Z,101375.91
2023-04-07T04:01:38.945Z,101361.78
2023-04-07T04:06:53.929Z,101358.09
2023-04-07T04:12:12.833Z,101347.41
2023-04-07T04:17:28.269Z,101326.09
2023-04-07T04:22:33.897Z,101323.09
2023-04-07T04:27:39.737Z,101308.00
2023-04-07T04:32:53.739Z,101315.97
2023-04-07T04:38:14.490Z,101317.28
2023-04-07T04:43:25.192Z,101276.78
2023-04-07T04:48:32.747Z,101281.16
2023-04-07T04:53:38.305Z,101265.94
2023-04-07T04:58:47.595Z,101230.34
2023-04-07T05:04:03.899Z,101248.84
2023-04-07T05:09:09.690Z,101269.75
2023-04-07T05:14:21.783Z,101276.63
2023-04-07T05:19:33.879Z,101250.22
2023-04-07T05:24:46.996Z,101229.41
2023-04-07T05:29:52.995Z,101220.59
2023-04-07T05:35:04.163Z,101217.09
2023-04-07T05:40:14.334Z,101191.72
2023-04-07T05:45:19.998Z,101221.84
2023-04-07T05:50:28.520Z,101191.91
2023-04-07T05:55:36.363Z,101185.66
2023-04-07T06:00:44.185Z,101177.56
2023-04-07T06:05:53.759Z,101177.91
2023-04-07T06:10:59.977Z,101212.22
2023-04-07T06:16:05.051Z,101172.09
2023-04-07T06:21:10.497Z,101191.88
2023-04-07T06:26:16.026Z,101195.88
2023-04-07T06:31:22.369Z,101199.91
2023-04-07T06:36:30.426Z,101195.50
2023-04-07T06:41:35.580Z,101194.13
2023-04-07T06:46:40.970Z,101203.47
2023-04-07T06:51:45.740Z,101206.47
2023-04-07T06:56:53.560Z,101211.22
2023-04-07T07:01:59.651Z,101210.94
2023-04-07T07:07:04.593Z,101207.50
2023-04-07T07:12:09.569Z,101200.38
2023-04-07T07:17:14.424Z,101201.16
2023-04-07T07:22:19.734Z,101194.13
2023-04-07T07:27:24.754Z,101185.28
2023-04-07T07:32:29.635Z,101178.81
2023-04-07T07:37:34.965Z,101180.41
2023-04-07T07:42:41.164Z,101165.94
2023-04-07T07:47:46.005Z,101153.97
2023-04-07T07:52:50.810Z,101157.63
2023-04-07T07:57:55.647Z,101168.88
2023-04-07T08:03:01.456Z,101148.91
2023-04-07T08:08:06.185Z,101177.72
2023-04-07T08:13:11.068Z,101147.31
2023-04-07T08:18:18.735Z,101174.81
2023-04-07T08:23:23.604Z,101158.81
2023-04-07T08:28:28.834Z,101155.78
2023-04-07T08:33:33.526Z,101158.72
2023-04-07T08:38:37.878Z,101155.03
2023-04-07T08:43:44.815Z,101161.88
2023-04-07T08:48:53.608Z,101160.28
2023-04-07T08:54:12.074Z,101160.91
2023-04-07T08:59:28.183Z,101158.16
2023-04-07T09:04:33.576Z,101161.06
2023-04-07T09:09:38.521Z,101164.06
2023-04-07T09:14:43.525Z,101157.63
2023-04-07T09:19:49.500Z,101164.34
2023-04-07T09:24:54.174Z,101156.81
2023-04-07T09:30:19.185Z,101164.91
2023-04-07T09:35:25.117Z,101163.44
2023-04-07T09:40:30.145Z,101168.50
2023-04-07T09:45:40.540Z,101172.97
2023-04-07T09:50:50.502Z,101204.09
2023-04-07T09:55:55.488Z,101184.47
2023-04-07T10:01:00.417Z,101194.47
2023-04-07T10:06:08.372Z,101223.06
2023-04-07T10:11:13.153Z,101203.28
2023-04-07T10:16:18.276Z,101202.94
2023-04-07T10:21:24.543Z,101207.22
2023-04-07T10:26:34.395Z,101222.31
2023-04-07T10:31:40.693Z,101224.63
2023-04-07T10:37:19.685Z,101225.06
2023-04-07T10:42:43.530Z,101237.47
2023-04-07T10:48:00.471Z,101243.41
2023-04-07T10:53:18.757Z,101250.63
2023-04-07T10:58:27.502Z,101262.19
2023-04-07T11:03:37.688Z,101265.69
2023-04-07T11:08:49.359Z,101278.22
2023-04-07T11:13:54.303Z,101285.66
2023-04-07T11:18:59.632Z,101289.78
2023-04-07T11:24:04.667Z,101293.19
2023-04-07T11:29:13.472Z,101292.31
2023-04-07T11:34:18.443Z,101303.91
2023-04-07T11:39:24.650Z,101313.00
2023-04-07T11:44:29.822Z,101313.16
2023-04-07T11:49:34.740Z,101318.22
2023-04-07T11:54:49.651Z,101326.09
2023-04-07T12:00:12.620Z,101322.91
2023-04-07T12:05:20.780Z,101321.91
2023-04-07T12:10:30.753Z,101323.75
2023-04-07T12:15:38.802Z,101334.66
2023-04-07T12:20:43.657Z,101338.75
2023-04-07T12:25:48.990Z,101342.84
2023-04-07T12:30:54.026Z,101343.75
2023-04-07T12:36:03.962Z,101371.13
2023-04-07T12:41:08.803Z,101350.53
2023-04-07T12:46:15.274Z,101357.00
2023-04-07T12:51:20.142Z,101350.78
2023-04-07T12:56:25.364Z,101347.34
2023-04-07T13:01:32.225Z,101350.41
2023-04-07T13:06:37.257Z,101361.75
2023-04-07T13:11:43.380Z,101350.50
2023-04-07T13:16:50.163Z,101350.69
2023-04-07T13:21:55.343Z,101348.34
2023-04-07T13:27:01.727Z,101336.94
2023-04-07T13:32:10.891Z,101338.47
2023-04-07T13:37:15.900Z,101352.56
2023-04-07T13:42:23.164Z,101367.03
2023-04-07T13:47:29.112Z,101336.97
2023-04-07T13:52:36.519Z,101338.09
2023-04-07T13:57:41.534Z,101368.97
2023-04-07T14:02:47.236Z,101338.34
2023-04-07T14:07:53.362Z,101344.47
2023-04-07T14:13:00.069Z,101338.75
2023-04-07T14:18:05.774Z,101331.66
2023-04-07T14:23:15.066Z,101334.38
2023-04-07T14:28:22.824Z,101330.91
2023-04-07T14:33:30.754Z,101324.75
2023-04-07T14:38:35.858Z,101333.75
2023-04-07T14:43:41.319Z,101331.28
2023-04-07T14:48:49.528Z,101351.53
2023-04-07T14:53:57.194Z,101338.03
2023-04-07T14:59:03.654Z,101326.56
2023-04-07T15:04:08.707Z,101331.78
2023-04-07T15:09:15.869Z,101331.84
2023-04-07T15:14:20.785Z,101333.47
2023-04-07T15:19:25.829Z,101327.75
2023-04-07T15:24:30.857Z,101332.50
2023-04-07T15:29:35.921Z,101352.94
2023-04-07T15:34:41.129Z,101340.66
2023-04-07T15:39:46.079Z,101330.31
2023-04-07T15:44:50.888Z,101323.00
2023-04-07T15:49:57.106Z,101334.56
2023-04-07T15:55:01.984Z,101334.97
2023-04-07T16:00:06.849Z,101328.50
2023-04-07T16:05:12.930Z,101328.41
2023-04-07T16:10:20.954Z,101333.56
2023-04-07T16:15:38.592Z,101323.78
2023-04-07T16:20:46.309Z,101330.50
2023-04-07T16:25:51.138Z,101338.41
2023-04-07T16:30:57.786Z,101341.25
2023-04-07T16:36:02.695Z,101340.56
2023-04-07T16:41:09.635Z,101354.97
2023-04-07T16:46:14.500Z,101331.78
2023-04-07T16:51:20.005Z,101323.53
2023-04-07T16:56:27.607Z,101329.50
2023-04-07T17:01:32.391Z,101356.28
2023-04-07T17:06:37.198Z,101330.91
2023-04-07T17:11:43.713Z,101332.59
2023-04-07T17:16:48.340Z,101319.19
2023-04-07T17:21:54.100Z,101317.97
2023-04-07T17:26:59.013Z,101328.22
2023-04-07T17:32:03.997Z,101324.16
2023-04-07T17:37:08.702Z,101318.75
2023-04-07T17:42:13.469Z,101308.81
2023-04-07T17:47:18.930Z,101319.78
2023-04-07T17:52:24.008Z,101301.84
2023-04-07T17:57:28.886Z,101302.19
2023-04-07T18:02:34.514Z,101287.88
2023-04-07T18:07:40.198Z,101286.81
2023-04-07T18:12:44.852Z,101299.53
2023-04-07T18:17:54.001Z,101285.31
2023-04-07T18:22:59.193Z,101294.81
2023-04-07T18:28:04.070Z,101284.47
2023-04-07T18:33:09.619Z,101283.97
2023-04-07T18:38:15.125Z,101283.16
2023-04-07T18:43:19.317Z,101279.19
2023-04-07T18:48:24.183Z,101291.59
2023-04-07T18:53:28.830Z,101286.56
2023-04-07T18:58:33.770Z,101272.47
2023-04-07T19:03:39.271Z,101277.28
2023-04-07T19:08:44.309Z,101317.28
2023-04-07T19:13:50.576Z,101277.28
2023-04-07T19:18:55.969Z,101282.13
2023-04-07T19:24:01.952Z,101267.66
2023-04-07T19:29:07.015Z,101271.47
2023-04-07T19:34:11.658Z,101266.66
2023-04-07T19:39:17.329Z,101265.47
2023-04-07T19:44:22.417Z,101276.53
2023-04-07T19:49:27.899Z,101266.25
2023-04-07T19:54:34.474Z,101302.38
2023-04-07T19:59:40.653Z,101270.47
2023-04-07T20:04:45.263Z,101272.00
2023-04-07T20:09:52.637Z,101275.97
2023-04-07T20:14:57.641Z,101273.59
2023-04-07T20:20:02.739Z,101273.47
2023-04-07T20:25:09.940Z,101265.63
2023-04-07T20:30:15.674Z,101264.03
2023-04-07T20:35:19.912Z,101272.97
2023-04-07T20:40:25.576Z,101270.66
2023-04-07T20:45:30.511Z,101282.06
2023-04-07T20:50:35.425Z,101275.38
2023-04-07T20:55:40.368Z,101286.84
2023-04-07T21:00:45.163Z,101277.69
2023-04-07T21:05:51.847Z,101292.94
2023-04-07T21:10:57.090Z,101286.16
2023-04-07T21:16:04.442Z,101288.78
2023-04-07T21:21:09.451Z,101280.28
2023-04-07T21:26:15.117Z,101299.59
2023-04-07T21:31:26.464Z,101326.75
2023-04-07T21:36:30.604Z,101304.00
2023-04-07T21:41:36.572Z,101301.69
2023-04-07T21:46:43.467Z,101299.69
2023-04-07T21:51:48.429Z,101302.63
2023-04-07T21:56:55.166Z,101334.19
2023-04-07T22:02:00.879Z,101334.81
2023-04-07T22:07:05.925Z,101337.25
2023-04-07T22:12:10.682Z,101339.91
2023-04-07T22:17:17.285Z,101379.19
2023-04-07T22:22:22.598Z,101338.97
2023-04-07T22:27:28.974Z,101378.72
2023-04-07T22:32:33.879Z,101349.91
2023-04-07T22:37:39.763Z,101345.75
2023-04-07T22:42:44.873Z,101386.31
2023-04-07T22:47:49.719Z,101360.31
2023-04-07T22:52:54.120Z,101358.28
2023-04-07T22:57:58.828Z,101361.81
2023-04-07T23:03:03.900Z,101360.09
2023-04-07T23:08:08.778Z,101366.56
2023-04-07T23:13:16.295Z,101366.34
2023-04-07T23:18:21.173Z,101363.63
2023-04-07T23:23:25.989Z,101369.47
2023-04-07T23:28:31.897Z,101364.75
2023-04-07T23:33:36.732Z,101390.25
2023-04-07T23:38:42.086Z,101378.53
2023-04-07T23:43:46.982Z,101420.00
2023-04-07T23:48:52.182Z,101375.22
2023-04-07T23:53:58.227Z,101370.25
2023-04-07T23:59:03.131Z,101373.78
